Coal City, WV (25823)

10:28 AM EST on February 14, 2016 (GMT -0500)
Cool Ridge | | Change Station
CLOSE
Current Station
Personal Weather Station
Location: Raleigh Co., WV
Elevation: 2965 ft
Nearby Weather Stations

Elev 2965 ft 37.66 °N, 81.09 °W | Updated 5 seconds ago

Overcast
Overcast
6.5 °F
Feels Like -3 °F
N
5.0
Wind Variable Wind from ESE
Gusts 11.0 mph

Today
High -- | Low -- °F
--% Chance of Precip.
Yesterday
High -- | Low -- °F
Precip. -- in
Pressure 30.54 in
Visibility 10.0 miles
Clouds Overcast 10000 ft
Windchill -3 °F
Dew Point -2 °F
Humidity 66%
Rainfall 0.00 in
Snow Depth Not available.
7:16 AM 6:02 PM
Waxing Crescent, 42% visible
METAR KBKW 141451Z AUTO 12005KT 10SM OVC100 M13/M19 A3033 RMK AO2 SLP342 T11331194 53002
Pressure 30.54 in
Visibility 10.0 miles
Clouds Overcast 10000 ft
Windchill -3 °F
Dew Point -2 °F
Humidity 66%
Rainfall 0.00 in
Snow Depth Not available.
7:16 AM 6:02 PM
Waxing Crescent, 42% visible
METAR KBKW 141451Z AUTO 12005KT 10SM OVC100 M13/M19 A3033 RMK AO2 SLP342 T11331194 53002

10-Day Weather Forecast

Almanac

Astronomy

Feb. 14, 2016 Rise Set
Actual Time
Civil Twilight
Nautical Twilight
Astronomical Twilight
Moon
Length of Visible Light
Length of Day
Tomorrow will be .
, % of the Moon is Illuminated

Today's Extremes

State Highs State Lows

Community

WunderPhotos

Upload Photos

1,892,791 photos uploaded!

WunderBlog® & News

Nearby

Air Quality

  Air Quality AQ Index Pollutant
Not available.

Snow Depth

Station Depth Elevation

Earthquake Activity

City Distance Mag. Time & Date
Minimum magnitude displayed is 2.5.

Coastal Water Temperatures

Place Temperature

Stations

Nearby Weather Stations

Station Location Temp. Windchill Dew Point Humidity Wind Precip. Elev Updated Type
                   

Watches & Warnings

Winter Storm Warning
Issued: 5:52 AM EST Feb. 14, 2016 – National Weather Service

... Winter Storm Warning remains in effect from 2 PM this
afternoon to 1 PM EST Monday...

* accumulations... snow accumulation of 3 to 6 inches... along with
around a trace of ice. Ice accretion up to a tenth of an inch is
possible in far eastern Raleigh County on Monday.

* Temperatures... in the 20s... rising through the 30s Monday.

* Timing... this afternoon through early Monday afternoon.

* Impacts... untreated roads will be come snow covered... creating
hazardous travel conditions.

Precautionary/preparedness actions...

A Winter Storm Warning for heavy snow means severe winter weather
conditions are expected or occurring. Significant amounts of snow
are forecast that will make travel dangerous. Only travel in an
emergency. If you must travel... keep an extra flashlight...
food... and water in your vehicle in case of an emergency.